createdAt,value
2018-12-01T00:05:26.252Z,8.2
2018-12-01T00:15:29.663Z,8.4
2018-12-01T00:25:33.093Z,8.3
2018-12-01T00:35:36.533Z,8.2
2018-12-01T00:45:39.944Z,8.3
2018-12-01T00:55:43.394Z,8.2
2018-12-01T01:05:46.819Z,8.3
2018-12-01T01:15:50.244Z,8.4
2018-12-01T01:25:53.636Z,8.4
2018-12-01T01:35:57.043Z,8.3
2018-12-01T01:46:00.480Z,8.3
2018-12-01T01:56:03.915Z,8.2
2018-12-01T02:06:07.343Z,8.3
2018-12-01T02:16:10.762Z,8.4
2018-12-01T02:26:14.171Z,8.4
2018-12-01T02:36:17.587Z,8.3
2018-12-01T02:46:21.039Z,8.2
2018-12-01T02:56:24.487Z,8.4
2018-12-01T03:06:27.914Z,8.3
2018-12-01T03:16:31.342Z,8.4
2018-12-01T03:26:34.783Z,8.3
2018-12-01T03:36:38.202Z,8.3
2018-12-01T03:46:41.628Z,8.3
2018-12-01T03:56:45.023Z,8.3
2018-12-01T04:06:48.420Z,8.3
2018-12-01T04:16:51.857Z,8.3
2018-12-01T04:26:55.297Z,8.3
2018-12-01T04:36:58.736Z,8.4
2018-12-01T04:47:02.161Z,8.4
2018-12-01T04:57:05.604Z,8.4
2018-12-01T05:07:09.023Z,8.4
2018-12-01T05:17:12.444Z,8.4
2018-12-01T05:27:15.854Z,8.3
2018-12-01T05:37:19.254Z,8.5
2018-12-01T05:47:22.651Z,8.3
2018-12-01T05:57:26.091Z,8.3
2018-12-01T06:07:29.538Z,8.3
2018-12-01T06:17:32.957Z,8.4
2018-12-01T06:27:36.409Z,8.2
2018-12-01T06:37:39.855Z,8.3
2018-12-01T06:47:43.277Z,8.3
2018-12-01T06:57:46.718Z,8.4
2018-12-01T07:07:50.166Z,8.4
2018-12-01T07:17:53.588Z,8.3
2018-12-01T07:27:57.007Z,8.3
2018-12-01T07:38:00.450Z,8.4
2018-12-01T07:48:03.881Z,8.3
2018-12-01T07:58:07.329Z,8.4
2018-12-01T08:08:10.778Z,8.5
2018-12-01T08:18:14.227Z,8.6
2018-12-01T08:28:17.640Z,8.6
2018-12-01T08:38:21.056Z,8.9
2018-12-01T08:48:24.482Z,8.9
2018-12-01T08:58:27.908Z,8.9
2018-12-01T09:08:31.351Z,9
2018-12-01T09:18:34.787Z,9
2018-12-01T09:28:38.231Z,9.4
2018-12-01T09:38:41.686Z,9.9
2018-12-01T09:48:45.128Z,10.3
2018-12-01T09:58:48.517Z,10
2018-12-01T10:08:51.981Z,9.9
2018-12-01T10:18:56.508Z,10.1
2018-12-01T10:29:00.056Z,10
2018-12-01T10:39:03.756Z,9.8
2018-12-01T10:49:07.227Z,9.8
2018-12-01T10:59:10.647Z,9.8
2018-12-01T11:09:14.080Z,9.9
2018-12-01T11:19:18.534Z,10.1
2018-12-01T11:29:21.985Z,10
2018-12-01T11:39:25.425Z,10.1
2018-12-01T11:49:28.842Z,10.1
2018-12-01T11:59:32.259Z,10.1
2018-12-01T12:09:35.699Z,10.3
2018-12-01T12:19:39.606Z,10.4
2018-12-01T12:29:43.073Z,10.5
2018-12-01T12:39:46.519Z,10.7
2018-12-01T12:49:49.959Z,10.6
2018-12-01T12:59:53.394Z,10.5
2018-12-01T13:09:56.839Z,10.4
2018-12-01T13:20:00.264Z,10.4
2018-12-01T13:30:03.703Z,10.4
2018-12-01T13:40:07.099Z,10.5
2018-12-01T13:50:10.539Z,10.3
2018-12-01T14:00:13.985Z,10.3
2018-12-01T14:10:17.387Z,10.1
2018-12-01T14:20:20.818Z,10.2
2018-12-01T14:30:24.261Z,10
2018-12-01T14:40:27.673Z,10.1
2018-12-01T14:50:31.111Z,9.8
2018-12-01T15:00:34.548Z,9.8
2018-12-01T15:10:37.975Z,9.5
2018-12-01T15:20:41.390Z,9.3
2018-12-01T15:30:44.845Z,9.4
2018-12-01T15:40:48.302Z,9.1
2018-12-01T15:50:51.728Z,9
2018-12-01T16:00:55.177Z,9
2018-12-01T16:10:58.615Z,8.8
2018-12-01T16:21:02.049Z,8.7
2018-12-01T16:31:05.465Z,8.5
2018-12-01T16:41:08.907Z,8.2
2018-12-01T16:51:13.323Z,8.4
2018-12-01T17:01:16.750Z,8.4
2018-12-01T17:11:20.170Z,8.6
2018-12-01T17:21:23.589Z,8.2
2018-12-01T17:31:27.049Z,8.4
2018-12-01T17:41:30.467Z,8.2
2018-12-01T17:51:34.030Z,8
2018-12-01T18:01:37.585Z,8.2
2018-12-01T18:11:41.037Z,7.9
2018-12-01T18:21:44.441Z,7.9
2018-12-01T18:31:48.885Z,7.8
2018-12-01T18:41:52.306Z,7.9
2018-12-01T18:51:55.740Z,7.8
2018-12-01T19:01:59.166Z,7.7
2018-12-01T19:12:02.626Z,7.6
2018-12-01T19:22:06.046Z,7.7
2018-12-01T19:32:09.502Z,7.9
2018-12-01T19:42:12.919Z,7.6
2018-12-01T19:52:16.366Z,7.7
2018-12-01T20:02:19.805Z,7.7
2018-12-01T20:12:23.226Z,7.7
2018-12-01T20:22:26.629Z,7.8
2018-12-01T20:32:30.033Z,7.7
2018-12-01T20:42:33.441Z,7.9
2018-12-01T20:52:36.887Z,7.9
2018-12-01T21:02:40.290Z,7.9
2018-12-01T21:12:43.739Z,8
2018-12-01T21:22:47.164Z,7.9
2018-12-01T21:32:50.610Z,7.6
2018-12-01T21:42:54.024Z,7.6
2018-12-01T21:52:57.480Z,7.3
2018-12-01T22:03:00.898Z,7.4
2018-12-01T22:13:04.374Z,7.2
2018-12-01T22:23:07.769Z,7.2
2018-12-01T22:33:11.180Z,7.6
2018-12-01T22:43:14.620Z,7.3
2018-12-01T22:53:18.080Z,7.4
2018-12-01T23:03:21.491Z,7.3
2018-12-01T23:13:24.939Z,7.5
2018-12-01T23:23:28.496Z,7.6
2018-12-01T23:33:31.929Z,7.4
2018-12-01T23:43:35.340Z,7.3
2018-12-01T23:53:38.829Z,7.2
